sensor_id;sensor_type;location;lat;lon;timestamp;P1;durP1;ratioP1;P2;durP2;ratioP2
69087;SDS011;56190;43.562;5.036;2023-07-16T00:02:21;11.65;;;6.32;;
69087;SDS011;56190;43.562;5.036;2023-07-16T00:04:46;9.93;;;6.50;;
69087;SDS011;56190;43.562;5.036;2023-07-16T00:07:12;12.00;;;6.75;;
69087;SDS011;56190;43.562;5.036;2023-07-16T00:09:37;15.57;;;6.93;;
69087;SDS011;56190;43.562;5.036;2023-07-16T00:12:02;10.68;;;6.50;;
69087;SDS011;56190;43.562;5.036;2023-07-16T00:14:28;8.90;;;6.32;;
69087;SDS011;56190;43.562;5.036;2023-07-16T00:16:53;13.52;;;7.50;;
69087;SDS011;56190;43.562;5.036;2023-07-16T00:19:18;12.27;;;6.60;;
69087;SDS011;56190;43.562;5.036;2023-07-16T00:21:44;10.25;;;6.65;;
69087;SDS011;56190;43.562;5.036;2023-07-16T00:24:09;14.55;;;7.70;;
69087;SDS011;56190;43.562;5.036;2023-07-16T00:26:34;15.32;;;7.50;;
69087;SDS011;56190;43.562;5.036;2023-07-16T00:29:00;13.35;;;7.40;;
69087;SDS011;56190;43.562;5.036;2023-07-16T00:31:25;12.10;;;7.30;;
69087;SDS011;56190;43.562;5.036;2023-07-16T00:33:50;14.63;;;7.40;;
69087;SDS011;56190;43.562;5.036;2023-07-16T00:36:15;12.70;;;7.07;;
69087;SDS011;56190;43.562;5.036;2023-07-16T00:38:41;9.60;;;7.13;;
69087;SDS011;56190;43.562;5.036;2023-07-16T00:41:07;10.57;;;6.63;;
69087;SDS011;56190;43.562;5.036;2023-07-16T00:43:32;12.88;;;7.30;;
69087;SDS011;56190;43.562;5.036;2023-07-16T00:45:58;12.30;;;7.60;;
69087;SDS011;56190;43.562;5.036;2023-07-16T00:48:23;9.18;;;6.88;;
69087;SDS011;56190;43.562;5.036;2023-07-16T00:50:49;13.98;;;7.10;;
69087;SDS011;56190;43.562;5.036;2023-07-16T00:53:15;9.98;;;7.40;;
69087;SDS011;56190;43.562;5.036;2023-07-16T00:55:41;11.20;;;7.18;;
69087;SDS011;56190;43.562;5.036;2023-07-16T00:58:07;17.83;;;7.47;;
69087;SDS011;56190;43.562;5.036;2023-07-16T01:00:33;13.50;;;7.88;;
69087;SDS011;56190;43.562;5.036;2023-07-16T01:02:58;13.48;;;7.32;;
69087;SDS011;56190;43.562;5.036;2023-07-16T01:05:24;11.88;;;6.28;;
69087;SDS011;56190;43.562;5.036;2023-07-16T01:07:59;9.85;;;7.28;;
69087;SDS011;56190;43.562;5.036;2023-07-16T01:10:26;13.15;;;7.30;;
69087;SDS011;56190;43.562;5.036;2023-07-16T01:12:53;16.52;;;7.75;;
69087;SDS011;56190;43.562;5.036;2023-07-16T01:15:19;13.05;;;7.45;;
69087;SDS011;56190;43.562;5.036;2023-07-16T01:17:45;16.25;;;7.20;;
69087;SDS011;56190;43.562;5.036;2023-07-16T01:20:10;10.65;;;7.05;;
69087;SDS011;56190;43.562;5.036;2023-07-16T01:28:21;11.25;;;7.25;;
69087;SDS011;56190;43.562;5.036;2023-07-16T01:30:51;9.80;;;6.53;;
69087;SDS011;56190;43.562;5.036;2023-07-16T01:33:17;11.23;;;6.97;;
69087;SDS011;56190;43.562;5.036;2023-07-16T01:35:43;10.65;;;7.10;;
69087;SDS011;56190;43.562;5.036;2023-07-16T01:38:10;10.98;;;6.85;;
69087;SDS011;56190;43.562;5.036;2023-07-16T01:40:36;14.98;;;6.47;;
69087;SDS011;56190;43.562;5.036;2023-07-16T01:43:01;10.93;;;6.28;;
69087;SDS011;56190;43.562;5.036;2023-07-16T01:45:26;12.73;;;7.05;;
69087;SDS011;56190;43.562;5.036;2023-07-16T01:47:59;12.25;;;7.47;;
69087;SDS011;56190;43.562;5.036;2023-07-16T01:50:24;12.77;;;7.18;;
69087;SDS011;56190;43.562;5.036;2023-07-16T01:52:50;11.70;;;7.60;;
69087;SDS011;56190;43.562;5.036;2023-07-16T01:55:15;9.60;;;6.57;;
69087;SDS011;56190;43.562;5.036;2023-07-16T01:57:40;11.57;;;7.28;;
69087;SDS011;56190;43.562;5.036;2023-07-16T02:00:06;10.93;;;7.20;;
69087;SDS011;56190;43.562;5.036;2023-07-16T02:02:32;13.02;;;7.15;;
69087;SDS011;56190;43.562;5.036;2023-07-16T02:04:58;9.02;;;6.50;;
69087;SDS011;56190;43.562;5.036;2023-07-16T02:07:23;10.32;;;6.85;;
69087;SDS011;56190;43.562;5.036;2023-07-16T02:09:49;12.20;;;7.68;;
69087;SDS011;56190;43.562;5.036;2023-07-16T02:12:14;11.60;;;6.88;;
69087;SDS011;56190;43.562;5.036;2023-07-16T02:14:39;12.52;;;7.25;;
69087;SDS011;56190;43.562;5.036;2023-07-16T02:17:05;10.07;;;6.82;;
69087;SDS011;56190;43.562;5.036;2023-07-16T02:19:30;11.57;;;6.95;;
69087;SDS011;56190;43.562;5.036;2023-07-16T02:21:55;11.90;;;7.47;;
69087;SDS011;56190;43.562;5.036;2023-07-16T02:24:20;11.73;;;7.50;;
69087;SDS011;56190;43.562;5.036;2023-07-16T02:26:45;10.85;;;6.80;;
69087;SDS011;56190;43.562;5.036;2023-07-16T02:29:11;12.85;;;7.85;;
69087;SDS011;56190;43.562;5.036;2023-07-16T02:31:36;9.68;;;6.85;;
69087;SDS011;56190;43.562;5.036;2023-07-16T02:34:02;10.95;;;7.20;;
69087;SDS011;56190;43.562;5.036;2023-07-16T02:36:27;14.25;;;7.85;;
69087;SDS011;56190;43.562;5.036;2023-07-16T02:38:52;11.25;;;7.53;;
69087;SDS011;56190;43.562;5.036;2023-07-16T02:41:17;10.63;;;7.53;;
69087;SDS011;56190;43.562;5.036;2023-07-16T02:43:45;13.10;;;7.65;;
69087;SDS011;56190;43.562;5.036;2023-07-16T02:46:10;12.00;;;7.78;;
69087;SDS011;56190;43.562;5.036;2023-07-16T02:48:35;14.63;;;8.50;;
69087;SDS011;56190;43.562;5.036;2023-07-16T02:51:00;13.65;;;8.40;;
69087;SDS011;56190;43.562;5.036;2023-07-16T02:53:26;9.38;;;7.28;;
69087;SDS011;56190;43.562;5.036;2023-07-16T02:55:51;12.43;;;7.47;;
69087;SDS011;56190;43.562;5.036;2023-07-16T02:58:16;11.77;;;7.60;;
69087;SDS011;56190;43.562;5.036;2023-07-16T03:00:41;11.82;;;7.93;;
69087;SDS011;56190;43.562;5.036;2023-07-16T03:03:06;14.10;;;7.35;;
69087;SDS011;56190;43.562;5.036;2023-07-16T03:05:32;11.90;;;7.85;;
69087;SDS011;56190;43.562;5.036;2023-07-16T03:07:57;10.43;;;7.50;;
69087;SDS011;56190;43.562;5.036;2023-07-16T03:10:22;10.75;;;7.93;;
69087;SDS011;56190;43.562;5.036;2023-07-16T03:12:48;11.75;;;7.60;;
69087;SDS011;56190;43.562;5.036;2023-07-16T03:15:13;12.80;;;8.13;;
69087;SDS011;56190;43.562;5.036;2023-07-16T03:17:38;14.45;;;7.78;;
69087;SDS011;56190;43.562;5.036;2023-07-16T03:20:04;15.02;;;8.75;;
69087;SDS011;56190;43.562;5.036;2023-07-16T03:22:30;11.20;;;8.20;;
69087;SDS011;56190;43.562;5.036;2023-07-16T03:24:55;12.68;;;8.30;;
69087;SDS011;56190;43.562;5.036;2023-07-16T03:27:21;12.43;;;8.48;;
69087;SDS011;56190;43.562;5.036;2023-07-16T03:29:46;13.20;;;7.85;;
69087;SDS011;56190;43.562;5.036;2023-07-16T03:32:11;16.15;;;9.18;;
69087;SDS011;56190;43.562;5.036;2023-07-16T03:34:36;13.32;;;8.55;;
69087;SDS011;56190;43.562;5.036;2023-07-16T03:37:02;13.48;;;7.80;;
69087;SDS011;56190;43.562;5.036;2023-07-16T03:39:27;13.20;;;8.50;;
69087;SDS011;56190;43.562;5.036;2023-07-16T03:41:52;14.95;;;8.75;;
69087;SDS011;56190;43.562;5.036;2023-07-16T03:44:17;11.30;;;7.40;;
69087;SDS011;56190;43.562;5.036;2023-07-16T03:46:43;14.38;;;8.30;;
69087;SDS011;56190;43.562;5.036;2023-07-16T03:49:08;14.23;;;8.68;;
69087;SDS011;56190;43.562;5.036;2023-07-16T03:51:33;13.20;;;8.30;;
69087;SDS011;56190;43.562;5.036;2023-07-16T03:53:59;14.27;;;9.30;;
69087;SDS011;56190;43.562;5.036;2023-07-16T03:56:24;11.93;;;7.85;;
69087;SDS011;56190;43.562;5.036;2023-07-16T03:58:49;15.18;;;8.70;;
69087;SDS011;56190;43.562;5.036;2023-07-16T04:01:14;13.68;;;7.80;;
69087;SDS011;56190;43.562;5.036;2023-07-16T04:03:39;15.65;;;9.30;;
69087;SDS011;56190;43.562;5.036;2023-07-16T04:06:05;13.68;;;8.77;;
69087;SDS011;56190;43.562;5.036;2023-07-16T04:08:30;10.98;;;7.88;;
69087;SDS011;56190;43.562;5.036;2023-07-16T04:10:56;11.13;;;7.68;;
69087;SDS011;56190;43.562;5.036;2023-07-16T04:13:21;15.65;;;8.27;;
69087;SDS011;56190;43.562;5.036;2023-07-16T04:15:46;13.75;;;8.02;;
69087;SDS011;56190;43.562;5.036;2023-07-16T04:18:11;13.48;;;8.45;;
69087;SDS011;56190;43.562;5.036;2023-07-16T04:20:37;15.18;;;8.32;;
69087;SDS011;56190;43.562;5.036;2023-07-16T04:23:02;14.70;;;8.70;;
69087;SDS011;56190;43.562;5.036;2023-07-16T04:25:27;12.93;;;9.38;;
69087;SDS011;56190;43.562;5.036;2023-07-16T04:27:52;11.55;;;8.50;;
69087;SDS011;56190;43.562;5.036;2023-07-16T04:30:18;14.82;;;9.18;;
69087;SDS011;56190;43.562;5.036;2023-07-16T04:32:43;17.10;;;8.55;;
69087;SDS011;56190;43.562;5.036;2023-07-16T04:35:08;16.10;;;8.85;;
69087;SDS011;56190;43.562;5.036;2023-07-16T04:37:33;13.57;;;8.95;;
69087;SDS011;56190;43.562;5.036;2023-07-16T04:39:59;13.27;;;8.68;;
69087;SDS011;56190;43.562;5.036;2023-07-16T04:42:24;13.80;;;8.15;;
69087;SDS011;56190;43.562;5.036;2023-07-16T04:44:49;14.55;;;8.65;;
69087;SDS011;56190;43.562;5.036;2023-07-16T04:47:14;14.45;;;8.18;;
69087;SDS011;56190;43.562;5.036;2023-07-16T04:49:40;13.32;;;8.18;;
69087;SDS011;56190;43.562;5.036;2023-07-16T04:52:05;11.57;;;8.18;;
69087;SDS011;56190;43.562;5.036;2023-07-16T04:54:39;12.60;;;8.80;;
69087;SDS011;56190;43.562;5.036;2023-07-16T04:57:07;14.00;;;8.27;;
69087;SDS011;56190;43.562;5.036;2023-07-16T04:59:33;14.95;;;8.68;;
69087;SDS011;56190;43.562;5.036;2023-07-16T05:01:58;13.70;;;7.68;;
69087;SDS011;56190;43.562;5.036;2023-07-16T05:04:23;11.68;;;7.97;;
69087;SDS011;56190;43.562;5.036;2023-07-16T05:06:49;10.55;;;7.18;;
69087;SDS011;56190;43.562;5.036;2023-07-16T05:09:14;13.75;;;8.07;;
69087;SDS011;56190;43.562;5.036;2023-07-16T05:11:39;11.68;;;7.95;;
69087;SDS011;56190;43.562;5.036;2023-07-16T05:14:04;9.50;;;7.05;;
69087;SDS011;56190;43.562;5.036;2023-07-16T05:16:30;10.13;;;6.57;;
69087;SDS011;56190;43.562;5.036;2023-07-16T05:18:55;10.20;;;6.15;;
69087;SDS011;56190;43.562;5.036;2023-07-16T05:21:20;9.23;;;5.97;;
69087;SDS011;56190;43.562;5.036;2023-07-16T05:23:45;8.93;;;5.72;;
69087;SDS011;56190;43.562;5.036;2023-07-16T05:26:10;8.85;;;5.75;;
69087;SDS011;56190;43.562;5.036;2023-07-16T05:28:36;5.53;;;4.97;;
69087;SDS011;56190;43.562;5.036;2023-07-16T05:31:02;6.65;;;4.70;;
69087;SDS011;56190;43.562;5.036;2023-07-16T05:33:27;7.85;;;4.55;;
69087;SDS011;56190;43.562;5.036;2023-07-16T05:35:52;7.03;;;4.65;;
69087;SDS011;56190;43.562;5.036;2023-07-16T05:38:18;7.43;;;4.60;;
69087;SDS011;56190;43.562;5.036;2023-07-16T05:40:43;8.77;;;4.05;;
69087;SDS011;56190;43.562;5.036;2023-07-16T05:43:08;7.22;;;3.90;;
69087;SDS011;56190;43.562;5.036;2023-07-16T05:45:33;5.90;;;3.88;;
69087;SDS011;56190;43.562;5.036;2023-07-16T05:47:59;4.95;;;3.55;;
69087;SDS011;56190;43.562;5.036;2023-07-16T05:50:24;6.78;;;3.85;;
69087;SDS011;56190;43.562;5.036;2023-07-16T05:52:49;6.95;;;3.80;;
69087;SDS011;56190;43.562;5.036;2023-07-16T05:55:14;5.93;;;3.90;;
69087;SDS011;56190;43.562;5.036;2023-07-16T05:57:40;6.10;;;3.22;;
69087;SDS011;56190;43.562;5.036;2023-07-16T06:00:05;4.95;;;3.83;;
69087;SDS011;56190;43.562;5.036;2023-07-16T06:02:31;8.13;;;3.78;;
69087;SDS011;56190;43.562;5.036;2023-07-16T06:04:56;6.50;;;3.58;;
69087;SDS011;56190;43.562;5.036;2023-07-16T06:07:21;5.45;;;3.50;;
69087;SDS011;56190;43.562;5.036;2023-07-16T06:09:47;5.78;;;3.60;;
69087;SDS011;56190;43.562;5.036;2023-07-16T06:12:12;6.65;;;3.63;;
69087;SDS011;56190;43.562;5.036;2023-07-16T06:14:37;5.30;;;3.75;;
69087;SDS011;56190;43.562;5.036;2023-07-16T06:17:02;6.25;;;3.80;;
69087;SDS011;56190;43.562;5.036;2023-07-16T06:19:28;5.07;;;3.70;;
69087;SDS011;56190;43.562;5.036;2023-07-16T06:21:53;6.05;;;3.83;;
69087;SDS011;56190;43.562;5.036;2023-07-16T06:24:18;5.05;;;3.28;;
69087;SDS011;56190;43.562;5.036;2023-07-16T06:26:44;5.78;;;3.30;;
69087;SDS011;56190;43.562;5.036;2023-07-16T06:29:09;4.65;;;3.20;;
69087;SDS011;56190;43.562;5.036;2023-07-16T06:31:34;5.25;;;3.38;;
69087;SDS011;56190;43.562;5.036;2023-07-16T06:33:59;4.50;;;3.30;;
69087;SDS011;56190;43.562;5.036;2023-07-16T06:36:25;3.92;;;3.35;;
69087;SDS011;56190;43.562;5.036;2023-07-16T06:38:50;4.72;;;3.08;;
69087;SDS011;56190;43.562;5.036;2023-07-16T06:41:16;4.70;;;3.30;;
69087;SDS011;56190;43.562;5.036;2023-07-16T06:43:41;4.50;;;3.42;;
69087;SDS011;56190;43.562;5.036;2023-07-16T06:46:06;6.68;;;3.30;;
69087;SDS011;56190;43.562;5.036;2023-07-16T06:48:31;4.93;;;3.15;;
69087;SDS011;56190;43.562;5.036;2023-07-16T06:50:56;7.78;;;3.53;;
69087;SDS011;56190;43.562;5.036;2023-07-16T06:53:22;5.75;;;2.75;;
69087;SDS011;56190;43.562;5.036;2023-07-16T06:55:48;6.43;;;3.47;;
69087;SDS011;56190;43.562;5.036;2023-07-16T06:58:13;5.35;;;3.30;;
69087;SDS011;56190;43.562;5.036;2023-07-16T07:00:39;5.28;;;3.30;;
69087;SDS011;56190;43.562;5.036;2023-07-16T07:03:04;3.58;;;3.00;;
69087;SDS011;56190;43.562;5.036;2023-07-16T07:05:30;7.78;;;3.40;;
69087;SDS011;56190;43.562;5.036;2023-07-16T07:07:55;9.15;;;3.53;;
69087;SDS011;56190;43.562;5.036;2023-07-16T07:10:20;4.88;;;3.70;;
69087;SDS011;56190;43.562;5.036;2023-07-16T07:12:45;6.45;;;3.65;;
69087;SDS011;56190;43.562;5.036;2023-07-16T07:15:11;4.40;;;3.47;;
69087;SDS011;56190;43.562;5.036;2023-07-16T07:17:36;5.72;;;3.30;;
69087;SDS011;56190;43.562;5.036;2023-07-16T07:20:01;6.35;;;3.95;;
69087;SDS011;56190;43.562;5.036;2023-07-16T07:22:27;5.63;;;3.75;;
69087;SDS011;56190;43.562;5.036;2023-07-16T07:24:52;8.48;;;4.78;;
69087;SDS011;56190;43.562;5.036;2023-07-16T07:27:17;7.28;;;3.88;;
69087;SDS011;56190;43.562;5.036;2023-07-16T07:29:43;8.10;;;4.65;;
69087;SDS011;56190;43.562;5.036;2023-07-16T07:32:08;9.00;;;4.07;;
69087;SDS011;56190;43.562;5.036;2023-07-16T07:34:33;6.70;;;3.85;;
69087;SDS011;56190;43.562;5.036;2023-07-16T07:36:59;6.68;;;3.70;;
69087;SDS011;56190;43.562;5.036;2023-07-16T07:39:24;6.13;;;3.90;;
69087;SDS011;56190;43.562;5.036;2023-07-16T07:41:49;7.13;;;4.15;;
69087;SDS011;56190;43.562;5.036;2023-07-16T07:44:15;9.43;;;3.80;;
69087;SDS011;56190;43.562;5.036;2023-07-16T07:46:40;7.38;;;4.18;;
69087;SDS011;56190;43.562;5.036;2023-07-16T07:49:05;6.25;;;3.63;;
69087;SDS011;56190;43.562;5.036;2023-07-16T07:51:30;7.15;;;3.92;;
69087;SDS011;56190;43.562;5.036;2023-07-16T07:53:56;5.68;;;3.42;;
69087;SDS011;56190;43.562;5.036;2023-07-16T07:56:21;5.13;;;3.47;;
69087;SDS011;56190;43.562;5.036;2023-07-16T07:58:46;8.05;;;4.22;;
69087;SDS011;56190;43.562;5.036;2023-07-16T08:01:11;7.45;;;4.22;;
69087;SDS011;56190;43.562;5.036;2023-07-16T08:03:37;6.38;;;3.47;;
69087;SDS011;56190;43.562;5.036;2023-07-16T08:06:02;8.40;;;3.70;;
69087;SDS011;56190;43.562;5.036;2023-07-16T08:08:27;5.13;;;3.50;;
69087;SDS011;56190;43.562;5.036;2023-07-16T08:10:53;8.00;;;3.60;;
69087;SDS011;56190;43.562;5.036;2023-07-16T08:13:19;6.40;;;3.28;;
69087;SDS011;56190;43.562;5.036;2023-07-16T08:15:44;6.78;;;3.70;;
69087;SDS011;56190;43.562;5.036;2023-07-16T08:18:09;6.85;;;3.97;;
69087;SDS011;56190;43.562;5.036;2023-07-16T08:20:35;6.20;;;4.05;;
69087;SDS011;56190;43.562;5.036;2023-07-16T08:23:00;6.57;;;4.18;;
69087;SDS011;56190;43.562;5.036;2023-07-16T08:25:26;7.60;;;3.30;;
69087;SDS011;56190;43.562;5.036;2023-07-16T08:27:51;5.65;;;3.53;;
69087;SDS011;56190;43.562;5.036;2023-07-16T08:30:17;5.45;;;3.53;;
69087;SDS011;56190;43.562;5.036;2023-07-16T08:32:42;7.55;;;3.67;;
69087;SDS011;56190;43.562;5.036;2023-07-16T08:35:07;3.97;;;3.03;;
69087;SDS011;56190;43.562;5.036;2023-07-16T08:37:37;5.80;;;3.35;;
69087;SDS011;56190;43.562;5.036;2023-07-16T08:40:02;6.50;;;3.70;;
69087;SDS011;56190;43.562;5.036;2023-07-16T08:42:28;6.50;;;4.20;;
69087;SDS011;56190;43.562;5.036;2023-07-16T08:44:54;4.40;;;3.55;;
69087;SDS011;56190;43.562;5.036;2023-07-16T08:47:19;8.10;;;3.88;;
69087;SDS011;56190;43.562;5.036;2023-07-16T08:49:54;6.57;;;4.22;;
69087;SDS011;56190;43.562;5.036;2023-07-16T08:52:24;10.10;;;4.53;;
69087;SDS011;56190;43.562;5.036;2023-07-16T08:54:51;7.20;;;3.90;;
69087;SDS011;56190;43.562;5.036;2023-07-16T08:57:16;6.13;;;3.42;;
69087;SDS011;56190;43.562;5.036;2023-07-16T08:59:42;5.97;;;3.75;;
69087;SDS011;56190;43.562;5.036;2023-07-16T09:02:08;6.05;;;3.50;;
69087;SDS011;56190;43.562;5.036;2023-07-16T09:04:34;5.00;;;3.95;;
69087;SDS011;56190;43.562;5.036;2023-07-16T09:06:59;6.90;;;4.07;;
69087;SDS011;56190;43.562;5.036;2023-07-16T09:09:24;5.15;;;3.75;;
69087;SDS011;56190;43.562;5.036;2023-07-16T09:11:50;5.43;;;3.70;;
69087;SDS011;56190;43.562;5.036;2023-07-16T09:14:18;7.00;;;3.78;;
69087;SDS011;56190;43.562;5.036;2023-07-16T09:16:50;7.78;;;4.00;;
69087;SDS011;56190;43.562;5.036;2023-07-16T09:21:45;8.48;;;4.10;;
69087;SDS011;56190;43.562;5.036;2023-07-16T09:24:10;5.22;;;3.75;;
69087;SDS011;56190;43.562;5.036;2023-07-16T09:26:37;7.00;;;3.80;;
69087;SDS011;56190;43.562;5.036;2023-07-16T09:29:05;7.82;;;4.18;;
69087;SDS011;56190;43.562;5.036;2023-07-16T09:31:30;7.82;;;4.43;;
69087;SDS011;56190;43.562;5.036;2023-07-16T09:33:56;8.00;;;4.33;;
69087;SDS011;56190;43.562;5.036;2023-07-16T09:36:25;5.15;;;3.88;;
69087;SDS011;56190;43.562;5.036;2023-07-16T09:38:51;5.70;;;3.80;;
69087;SDS011;56190;43.562;5.036;2023-07-16T09:41:16;7.80;;;4.32;;
69087;SDS011;56190;43.562;5.036;2023-07-16T09:43:42;8.98;;;4.13;;
69087;SDS011;56190;43.562;5.036;2023-07-16T09:46:08;6.05;;;4.25;;
69087;SDS011;56190;43.562;5.036;2023-07-16T09:48:33;5.75;;;4.00;;
69087;SDS011;56190;43.562;5.036;2023-07-16T09:50:59;5.60;;;3.72;;
69087;SDS011;56190;43.562;5.036;2023-07-16T09:53:24;6.75;;;3.83;;
69087;SDS011;56190;43.562;5.036;2023-07-16T09:55:50;8.40;;;4.50;;
69087;SDS011;56190;43.562;5.036;2023-07-16T09:58:18;7.50;;;4.38;;
69087;SDS011;56190;43.562;5.036;2023-07-16T10:00:44;6.97;;;3.47;;
69087;SDS011;56190;43.562;5.036;2023-07-16T10:03:10;7.35;;;3.75;;
69087;SDS011;56190;43.562;5.036;2023-07-16T10:05:36;5.95;;;3.90;;
69087;SDS011;56190;43.562;5.036;2023-07-16T10:08:04;6.65;;;3.63;;
69087;SDS011;56190;43.562;5.036;2023-07-16T10:10:40;6.05;;;3.55;;
69087;SDS011;56190;43.562;5.036;2023-07-16T10:13:06;8.77;;;4.45;;
69087;SDS011;56190;43.562;5.036;2023-07-16T10:15:31;6.97;;;3.65;;
69087;SDS011;56190;43.562;5.036;2023-07-16T10:17:57;7.17;;;4.40;;
69087;SDS011;56190;43.562;5.036;2023-07-16T10:22:57;5.93;;;3.80;;
69087;SDS011;56190;43.562;5.036;2023-07-16T10:25:24;5.10;;;4.05;;
69087;SDS011;56190;43.562;5.036;2023-07-16T10:27:50;4.70;;;3.70;;
69087;SDS011;56190;43.562;5.036;2023-07-16T10:30:15;4.95;;;3.20;;
69087;SDS011;56190;43.562;5.036;2023-07-16T10:32:41;9.02;;;3.75;;
69087;SDS011;56190;43.562;5.036;2023-07-16T10:35:06;6.65;;;3.97;;
69087;SDS011;56190;43.562;5.036;2023-07-16T10:37:34;6.85;;;4.10;;
69087;SDS011;56190;43.562;5.036;2023-07-16T10:39:59;7.90;;;3.85;;
69087;SDS011;56190;43.562;5.036;2023-07-16T10:42:26;7.85;;;4.30;;
69087;SDS011;56190;43.562;5.036;2023-07-16T10:44:52;7.22;;;3.63;;
69087;SDS011;56190;43.562;5.036;2023-07-16T10:47:40;7.97;;;4.50;;
69087;SDS011;56190;43.562;5.036;2023-07-16T10:50:04;6.93;;;4.00;;
69087;SDS011;56190;43.562;5.036;2023-07-16T10:52:30;5.75;;;4.53;;
69087;SDS011;56190;43.562;5.036;2023-07-16T10:54:55;9.15;;;4.47;;
69087;SDS011;56190;43.562;5.036;2023-07-16T10:57:22;13.98;;;5.30;;
69087;SDS011;56190;43.562;5.036;2023-07-16T10:59:48;8.55;;;5.15;;
69087;SDS011;56190;43.562;5.036;2023-07-16T11:02:15;8.65;;;4.68;;
69087;SDS011;56190;43.562;5.036;2023-07-16T11:04:40;9.15;;;5.65;;
69087;SDS011;56190;43.562;5.036;2023-07-16T11:07:06;8.90;;;5.10;;
69087;SDS011;56190;43.562;5.036;2023-07-16T11:09:33;7.03;;;4.75;;
69087;SDS011;56190;43.562;5.036;2023-07-16T11:12:05;8.35;;;4.68;;
69087;SDS011;56190;43.562;5.036;2023-07-16T11:14:31;7.82;;;4.30;;
69087;SDS011;56190;43.562;5.036;2023-07-16T11:17:03;8.60;;;5.05;;
69087;SDS011;56190;43.562;5.036;2023-07-16T11:19:29;8.43;;;4.80;;
69087;SDS011;56190;43.562;5.036;2023-07-16T11:21:55;8.60;;;4.65;;
69087;SDS011;56190;43.562;5.036;2023-07-16T11:24:21;11.07;;;4.75;;
69087;SDS011;56190;43.562;5.036;2023-07-16T11:26:53;7.32;;;4.45;;
69087;SDS011;56190;43.562;5.036;2023-07-16T11:29:19;5.35;;;4.20;;
69087;SDS011;56190;43.562;5.036;2023-07-16T11:31:44;5.63;;;3.90;;
69087;SDS011;56190;43.562;5.036;2023-07-16T11:34:13;9.55;;;4.43;;
69087;SDS011;56190;43.562;5.036;2023-07-16T11:36:38;5.40;;;4.03;;
69087;SDS011;56190;43.562;5.036;2023-07-16T11:39:04;7.95;;;4.15;;
69087;SDS011;56190;43.562;5.036;2023-07-16T11:41:29;7.82;;;4.25;;
69087;SDS011;56190;43.562;5.036;2023-07-16T11:43:58;6.45;;;3.85;;
69087;SDS011;56190;43.562;5.036;2023-07-16T11:46:24;5.95;;;3.85;;
69087;SDS011;56190;43.562;5.036;2023-07-16T11:48:49;8.30;;;4.25;;
69087;SDS011;56190;43.562;5.036;2023-07-16T11:51:14;7.65;;;3.88;;
69087;SDS011;56190;43.562;5.036;2023-07-16T11:53:40;6.60;;;4.30;;
69087;SDS011;56190;43.562;5.036;2023-07-16T11:56:05;6.15;;;4.25;;
69087;SDS011;56190;43.562;5.036;2023-07-16T11:58:30;9.67;;;4.07;;
69087;SDS011;56190;43.562;5.036;2023-07-16T12:00:55;6.73;;;4.23;;
69087;SDS011;56190;43.562;5.036;2023-07-16T12:03:21;7.43;;;4.10;;
69087;SDS011;56190;43.562;5.036;2023-07-16T12:05:46;6.95;;;3.80;;
69087;SDS011;56190;43.562;5.036;2023-07-16T12:08:11;7.40;;;3.85;;
69087;SDS011;56190;43.562;5.036;2023-07-16T12:10:39;8.68;;;4.18;;
69087;SDS011;56190;43.562;5.036;2023-07-16T12:13:04;8.45;;;4.43;;
69087;SDS011;56190;43.562;5.036;2023-07-16T12:15:30;5.67;;;4.17;;
69087;SDS011;56190;43.562;5.036;2023-07-16T12:17:55;9.20;;;4.45;;
69087;SDS011;56190;43.562;5.036;2023-07-16T12:20:20;8.27;;;4.93;;
69087;SDS011;56190;43.562;5.036;2023-07-16T12:22:45;9.87;;;5.63;;
69087;SDS011;56190;43.562;5.036;2023-07-16T12:25:11;11.13;;;6.30;;
69087;SDS011;56190;43.562;5.036;2023-07-16T12:27:36;8.87;;;5.43;;
69087;SDS011;56190;43.562;5.036;2023-07-16T12:30:01;10.03;;;6.50;;
69087;SDS011;56190;43.562;5.036;2023-07-16T12:32:26;12.20;;;6.30;;
69087;SDS011;56190;43.562;5.036;2023-07-16T12:34:52;10.03;;;6.50;;
69087;SDS011;56190;43.562;5.036;2023-07-16T12:37:17;15.38;;;7.28;;
69087;SDS011;56190;43.562;5.036;2023-07-16T12:39:43;11.93;;;7.33;;
69087;SDS011;56190;43.562;5.036;2023-07-16T12:42:08;10.50;;;6.47;;
69087;SDS011;56190;43.562;5.036;2023-07-16T12:44:33;10.45;;;7.03;;
69087;SDS011;56190;43.562;5.036;2023-07-16T12:46:58;9.20;;;6.83;;
69087;SDS011;56190;43.562;5.036;2023-07-16T12:49:24;9.37;;;6.50;;
69087;SDS011;56190;43.562;5.036;2023-07-16T12:51:49;10.50;;;6.80;;
69087;SDS011;56190;43.562;5.036;2023-07-16T12:54:14;11.47;;;7.93;;
69087;SDS011;56190;43.562;5.036;2023-07-16T12:56:39;10.07;;;6.60;;
69087;SDS011;56190;43.562;5.036;2023-07-16T12:59:05;10.15;;;6.25;;
69087;SDS011;56190;43.562;5.036;2023-07-16T13:01:30;13.63;;;6.57;;
69087;SDS011;56190;43.562;5.036;2023-07-16T13:03:55;10.05;;;5.85;;
69087;SDS011;56190;43.562;5.036;2023-07-16T13:06:21;15.93;;;6.47;;
69087;SDS011;56190;43.562;5.036;2023-07-16T13:08:46;8.07;;;5.40;;
69087;SDS011;56190;43.562;5.036;2023-07-16T13:11:11;10.87;;;5.90;;
69087;SDS011;56190;43.562;5.036;2023-07-16T13:13:36;11.80;;;6.50;;
69087;SDS011;56190;43.562;5.036;2023-07-16T13:16:01;10.07;;;6.20;;
69087;SDS011;56190;43.562;5.036;2023-07-16T13:18:27;11.43;;;6.05;;
69087;SDS011;56190;43.562;5.036;2023-07-16T13:20:52;10.63;;;6.10;;
69087;SDS011;56190;43.562;5.036;2023-07-16T13:23:17;11.05;;;6.15;;
69087;SDS011;56190;43.562;5.036;2023-07-16T13:25:43;9.55;;;6.50;;
69087;SDS011;56190;43.562;5.036;2023-07-16T13:28:08;10.23;;;6.20;;
69087;SDS011;56190;43.562;5.036;2023-07-16T13:30:33;9.10;;;5.70;;
69087;SDS011;56190;43.562;5.036;2023-07-16T13:32:59;9.23;;;5.85;;
69087;SDS011;56190;43.562;5.036;2023-07-16T13:35:24;11.60;;;6.15;;
69087;SDS011;56190;43.562;5.036;2023-07-16T13:37:49;10.88;;;6.07;;
69087;SDS011;56190;43.562;5.036;2023-07-16T13:40:15;9.23;;;6.40;;
69087;SDS011;56190;43.562;5.036;2023-07-16T13:42:40;10.43;;;6.63;;
69087;SDS011;56190;43.562;5.036;2023-07-16T13:45:05;9.60;;;6.23;;
69087;SDS011;56190;43.562;5.036;2023-07-16T13:47:31;11.80;;;5.82;;
69087;SDS011;56190;43.562;5.036;2023-07-16T13:49:56;7.57;;;5.88;;
69087;SDS011;56190;43.562;5.036;2023-07-16T13:52:22;11.60;;;5.75;;
69087;SDS011;56190;43.562;5.036;2023-07-16T13:54:47;9.07;;;5.97;;
69087;SDS011;56190;43.562;5.036;2023-07-16T13:57:12;9.97;;;6.37;;
69087;SDS011;56190;43.562;5.036;2023-07-16T13:59:38;10.32;;;6.20;;
69087;SDS011;56190;43.562;5.036;2023-07-16T14:02:03;8.35;;;5.82;;
69087;SDS011;56190;43.562;5.036;2023-07-16T14:04:29;11.70;;;6.15;;
69087;SDS011;56190;43.562;5.036;2023-07-16T14:06:54;9.13;;;5.53;;
69087;SDS011;56190;43.562;5.036;2023-07-16T14:09:20;8.85;;;5.57;;
69087;SDS011;56190;43.562;5.036;2023-07-16T14:11:45;9.63;;;5.93;;
69087;SDS011;56190;43.562;5.036;2023-07-16T14:14:13;12.95;;;5.90;;
69087;SDS011;56190;43.562;5.036;2023-07-16T14:16:38;11.48;;;6.05;;
69087;SDS011;56190;43.562;5.036;2023-07-16T14:19:03;10.60;;;5.75;;
69087;SDS011;56190;43.562;5.036;2023-07-16T14:21:29;10.00;;;5.97;;
69087;SDS011;56190;43.562;5.036;2023-07-16T14:23:55;7.20;;;5.68;;
69087;SDS011;56190;43.562;5.036;2023-07-16T14:26:20;10.07;;;5.90;;
69087;SDS011;56190;43.562;5.036;2023-07-16T14:28:45;8.57;;;5.90;;
69087;SDS011;56190;43.562;5.036;2023-07-16T14:31:11;10.77;;;6.23;;
69087;SDS011;56190;43.562;5.036;2023-07-16T14:33:36;9.68;;;6.65;;
69087;SDS011;56190;43.562;5.036;2023-07-16T14:36:02;7.85;;;6.30;;
69087;SDS011;56190;43.562;5.036;2023-07-16T14:38:28;10.05;;;6.07;;
69087;SDS011;56190;43.562;5.036;2023-07-16T14:40:53;7.30;;;5.90;;
69087;SDS011;56190;43.562;5.036;2023-07-16T14:43:18;10.93;;;6.35;;
69087;SDS011;56190;43.562;5.036;2023-07-16T14:45:44;9.73;;;6.53;;